NCAR-RAP Real-Time Weather Data

Output produced by METARs form (17 December 2018  15:45 UTC)
found at http://weather.rap.ucar.edu/surface/
 
RJCC 171530Z 35002KT 1600 -SHSN BR FEW003 BKN025 M02/M02 Q1003 RMK 1ST003 5CU025 A2962
RJCC 171500Z 33002KT 1600 -SHSN BR FEW003 SCT025 BKN035 M02/M03 Q1003 RMK 1ST003 3CU025 6CU035 A2962
RJCC 171430Z 29002KT 1400 R19R/P2000N R19L/P2000N BR FEW001 BKN035 M03/M03 Q1003
RJCC 171400Z VRB01KT 1400 R01L/P2000N R01R/P2000N BR FEW001 BKN070 M02/M03 Q1003
RJCC 171348Z 00000KT 1400 R01L/2000D R01R/P2000N BR FEW003 BKN070 M02/M03 Q1003 RMK 1ST003 6AC070 A2964
RJCC 171330Z 00000KT 1600 R01L/2000N R01R/P2000N BR FEW006 SCT045 BKN070 M02/M02 Q1003
RJCC 171300Z 07001KT 1600 -SHSN BR FEW006 SCT045 BKN060 M02/M02 Q1004 RMK 1ST006 3CU045 6CU060 A2965
RJCC 171230Z VRB02KT 1400 R01L/P2000N R01R/P2000N -SHSN BR FEW006 SCT045 BKN070 M02/M02 Q1004
RJCC 171200Z 11002KT 1400 R01L/P2000N R01R/P2000N BR FEW006 BKN045 M02/M02 Q1004 RMK 1ST006 6CU045 A2966
RJCC 171149Z 10003KT 2300 R01L/P2000N R01R/P2000N BR FEW010 SCT045 BKN070 M02/M02 Q1004 RMK 1ST010 3CU045 5AC070 A2967
RJCC 171141Z VRB02KT 3100 R01L/P2000N R01R/P2000N BR FEW010 BKN070 M02/M03 Q1004 RMK 1ST010 5AC070 A2967
RJCC 171130Z VRB01KT 4000 BR FEW010 SCT060 M01/M02 Q1004 RMK 1ST010 3CU060 A2966
RJCC 171100Z VRB01KT 3500 BR FEW010 BKN045 M02/M02 Q1004 RMK 1ST010 6CU045 A2967
RJCC 171030Z VRB01KT 4000 BR FEW010 SCT018 BKN050 01/M01 Q1005 RMK 1ST010 3ST018 6CU050 A2968
RJCC 171000Z VRB01KT 4000 R01L/P2000N R01R/P2000N BR FEW010 BKN018 M01/M02 Q1005
RJCC 170930Z 34003KT 4000 R01L/P2000N R01R/P2000N BR FEW010 BKN015 M01/M02 Q1005
RJCC 170900Z 01002KT 4500 R01L/P2000N R01R/P2000N BR FEW010 M01/M02 Q1004
RJCC 170830Z 04001KT 5000 BR FEW010 00/M01 Q1005 RMK 1ST010 A2968
RJCC 170800Z 01003KT 5000 BR FEW010 M01/M02 Q1005 RMK 1ST010 A2968
RJCC 170730Z VRB01KT 5000 BR FEW010 01/M01 Q1004 RMK 1ST010 A2967
RJCC 170700Z 32003KT 7000 FEW010 01/M01 Q1005 RMK 1ST010 A2968
RJCC 170630Z 32005KT 6000 FEW010 SCT050 02/M01 Q1005 RMK 1ST010 3CU050 A2968
RJCC 170600Z 33005KT 6000 FEW010 SCT050 02/M00 Q1004 RMK 1ST010 4CU050 A2967
RJCC 170530Z 33005KT 8000 FEW008 SCT050 02/M00 Q1004 RMK 1ST008 3CU050 A2967
RJCC 170500Z 36003KT 330V030 6000 FEW005 SCT006 BKN030 02/00 Q1004 RMK 1ST005 3ST006 5CU030 A2967
RJCC 170439Z 01006KT 5000 -SHRASN BR FEW003 SCT006 BKN030 01/00 Q1004 RMK 1ST003 3ST006 5CU030 A2967
RJCC 170430Z 01006KT 5000 -SHRASN BR FEW003 BKN005 BKN016 01/00 Q1005 RMK 1ST003 5ST005 6ST016 A2968
RJCC 170415Z 36007KT 3200 -SHSNRA FEW003 BKN005 BKN008 01/00 Q1005 RMK 2ST003 5ST005 6ST008 A2969
RJCC 170400Z 36008KT 2500 -SHSN FEW003 BKN005 BKN008 01/00 Q1005 RMK 2ST003 5ST005 6ST008 A2969
RJCC 170330Z 36007KT 3500 R01L/2000N R01R/P2000N -SHSNRA FEW003 SCT005 BKN008 01/01 Q1005
RJCC 170312Z 35007KT 2000 R01L/P2000N R01R/P2000N -SHSN FEW003 SCT005 BKN007 01/00 Q1005 RMK 1ST003 4ST005 6ST007 A2969
RJCC 170309Z 35007KT 2500 -SHSN FEW003 SCT005 BKN007 01/00 Q1005 RMK 1ST003 4ST005 6ST007 A2969
RJCC 170300Z 35008KT 4500 -SHSNRA FEW003 SCT005 BKN007 02/00 Q1005 RMK 1ST003 4ST005 6ST007 A2970
RJCC 170242Z 35007KT 310V010 4900 -SHSNRA FEW003 SCT005 BKN007 02/00 Q1006 RMK 1ST003 4ST005 6ST007 A2971
RJCC 170230Z 36008KT 6000 FEW005 BKN007 BKN015 02/00 Q1006 RMK 2ST005 5ST007 6ST015 A2971
RJCC 170200Z 35011KT 6000 -SHRA FEW005 BKN007 BKN025 02/00 Q1006 RMK 1ST005 5ST007 6CU025 A2971
RJCC 170130Z 36008KT 6000 -SHRA FEW007 BKN025 BKN070 02/01 Q1006 RMK 2ST007 5CU025 7AC070 A2972
RJCC 170100Z 34007KT 8000 -SHRA FEW005 SCT007 BKN025 02/01 Q1007 RMK 1ST005 4ST007 6CU025 A2974
RJCC 170030Z 02005KT 8000 -SHRA FEW008 BKN030 BKN070 03/01 Q1007 RMK 1ST008 5CU030 7AC070 A2974
RJCC 170000Z 01004KT 9999 -SHRA FEW005 SCT010 BKN015 02/00 Q1007 RMK 1ST005 3ST010 6ST015 A2974
RJCC 162343Z 36003KT 320V040 9999 -SHRA FEW005 BKN009 BKN030 02/01 Q1007 RMK 1ST005 5ST009 7CU030 A2974
RJCC 162330Z 02003KT 350V050 9999 -SHRA FEW005 SCT010 BKN030 02/01 Q1007 RMK 1ST005 3ST010 6CU030 A2974
RJCC 162300Z 01003KT 9999 FEW010 SCT030 BKN060 01/00 Q1006 RMK 1ST010 4CU030 6CU060 A2973
RJCC 162230Z 02004KT 9999 FEW010 BKN025 BKN035 02/01 Q1006 RMK 1ST010 5CU025 7CU035 A2972
RJCC 162200Z 01004KT 9999 FEW010 SCT020 BKN030 01/00 Q1006 RMK 1ST010 3CU020 7CU030 A2972
RJCC 162130Z 01005KT 9999 FEW010 SCT020 BKN030 02/01 Q1006 RMK 1ST010 3CU020 6CU030 A2972
RJCC 162100Z 34008KT 9999 FEW015 BKN030 01/00 Q1006 RMK 1ST015 5CU030 A2972
RJCC 162030Z 34007KT 9999 FEW015 01/00 Q1005 RMK 1ST015 A2970
RJCC 162000Z 21003KT 9999 FEW015 02/01 Q1005 RMK 1ST015 A2969
RJCC 161930Z 20007KT 9999 FEW015 02/01 Q1005 RMK 1ST015 A2969
RJCC 161900Z 21007KT 9999 FEW015 SCT080 03/02 Q1005 RMK 1ST015 4AC080 A2969
RJCC 161830Z 21009KT 9999 FEW015 BKN070 03/02 Q1005 RMK 1ST015 6AC070 A2968
RJCC 161800Z 20011KT 9999 FEW015 SCT060 BKN070 04/02 Q1005 RMK 1ST015 3CU060 7AC070 A2969
RJCC 161730Z 20007KT 9999 FEW010 BKN060 03/02 Q1005 RMK 1ST010 6CU060 A2970
RJCC 161700Z 17008KT 9999 -SHRASN FEW010 SCT030 BKN060 03/02 Q1006 RMK 1ST010 3CU030 6CU060 A2971
RJCC 161630Z 16008KT 9999 -SHRA FEW010 SCT030 BKN060 02/01 Q1006 RMK 1ST010 3CU030 6CU060 A2971
RJCC 161600Z 16007KT 9999 -SHRA FEW010 SCT030 BKN050 02/02 Q1006 RMK 1ST010 4CU030 6CU050 A2972
RJCC 161530Z 17008KT 9999 -SHRA FEW010 SCT015 BKN030 03/02 Q1006 RMK 1ST010 3ST015 7CU030 A2973
RJCC 161500Z 19008KT 9999 -SHRA FEW010 SCT015 BKN030 03/02 Q1007 RMK 1ST010 3ST015 7CU030 A2974
RJCC 161430Z 20007KT 9999 -SHRA FEW010 SCT015 BKN035 04/03 Q1007 RMK 1ST010 3ST015 7CU035 A2975
RJCC 161400Z 20009KT 9999 -SHRA FEW010 SCT015 BKN035 05/03 Q1007 RMK 1ST010 4ST015 7CU035 A2976
RJCC 161330Z 19012KT 7000 -SHRA FEW010 BKN015 BKN020 05/03 Q1008 RMK 1ST010 5ST015 7CU020 A2978
RJCC 161300Z 18012KT 8000 -SHRA FEW010 BKN020 BKN025 05/03 Q1008 RMK 1ST010 5CU020 7CU025 A2978
RJCC 161230Z 18013KT 8000 -SHRA FEW010 BKN020 BKN030 05/03 Q1008 RMK 1ST010 5CU020 7CU030 A2979
RJCC 161200Z 18014KT 7000 -SHRA FEW010 BKN015 BKN020 05/03 Q1009 RMK 1ST010 5ST015 7CU020 A2981
RJCC 161130Z 12007KT 8000 -SHRA FEW010 BKN015 BKN020 03/03 Q1010 RMK 1ST010 5ST015 7CU020 A2983
RJCC 161100Z 12008KT 8000 -SHRA FEW010 SCT015 BKN020 03/02 Q1010 RMK 1ST010 4ST015 7CU020 A2985
RJCC 161030Z 14008KT 8000 -SHRA FEW010 SCT015 BKN025 04/03 Q1011 RMK 1ST010 3ST015 7CU025 A2987
RJCC 161000Z 14006KT 8000 -SHRA FEW010 SCT015 BKN020 04/02 Q1012 RMK 1ST010 3ST015 7CU020 A2988
RJCC 160930Z 13008KT 9999 -SHRA FEW010 SCT015 BKN020 04/03 Q1012 RMK 1ST010 4ST015 6CU020 A2990
RJCC 160900Z 16010KT 8000 -SHRA FEW010 BKN015 BKN020 04/02 Q1013 RMK 1ST010 5ST015 7CU020 A2992
RJCC 160830Z 16011KT 9999 -SHRA BR FEW010 BKN015 BKN025 04/02 Q1013 RMK 1ST010 5ST015 7CU025 A2993 5000W
RJCC 160800Z 16008KT 9999 -SHRA BR FEW010 BKN025 04/M00 Q1014 RMK 1ST010 7CU025 A2994 5000W
RJCC 160730Z 16007KT 9999 -SHRA FEW010 BKN030 BKN070 03/00 Q1014 RMK 1ST010 5CU030 7AC070 A2995
RJCC 160700Z 15011KT 9999 -SHRA FEW010 SCT025 BKN070 04/M00 Q1014 RMK 1ST010 4CU025 7AC070 A2997
RJCC 160630Z 16011KT 9999 -SHRA FEW025 SCT040 BKN070 04/M01 Q1015 RMK 1CU025 4CU040 7AC070 A2997
RJCC 160600Z 18012KT 9999 -SHRA FEW025 SCT040 BKN070 05/M02 Q1015 RMK 1CU025 4CU040 7AC070 A2998
RJCC 160530Z 15007KT 9999 FEW025 BKN070 05/M02 Q1015 RMK 1CU025 7AC070 A2998
RJCC 160500Z 18007KT 9999 FEW025 BKN090 BKN150 05/M03 Q1015 RMK 1CU025 5AC090 7AC150 A2999
RJCC 160430Z 18011KT 9999 FEW025 SCT060 BKN160 05/M03 Q1016 RMK 1CU025 3CU060 7AC160 A3000
RJCC 160400Z 18013KT 9999 FEW025 SCT060 BKN180 05/M02 Q1016 RMK 1CU025 3CU060 7AC180 A3002
RJCC 160330Z 17009KT 150V210 9999 FEW025 SCT060 BKN180 05/M02 Q1016 RMK 1CU025 3CU060 7AC180 A3002
RJCC 160300Z 13008KT 9999 FEW025 BKN060 BKN120 04/M02 Q1017 RMK 1CU025 6CU060 7AC120 A3004
RJCC 160230Z 16007KT 9999 FEW025 BKN060 04/M02 Q1018 RMK 1CU025 7CU060 A3006
RJCC 160200Z 17008KT 9999 FEW025 BKN060 04/M02 Q1018 RMK 1CU025 7CU060 A3008
RJCC 160130Z 18007KT 9999 FEW025 BKN060 04/M02 Q1019 RMK 1CU025 7CU060 A3010
RJCC 160100Z 16006KT 9999 FEW025 BKN050 03/M04 Q1019 RMK 1CU025 7CU050 A3011
RJCC 160030Z 15005KT 120V210 9999 FEW030 BKN050 03/M04 Q1020 RMK 1CU030 7CU050 A3012
RJCC 160000Z 21007KT 9999 FEW030 BKN050 03/M04 Q1020 RMK 1CU030 7CU050 A3012
RJCC 152330Z 20007KT 9999 FEW030 BKN050 02/M04 Q1020 RMK 1CU030 7CU050 A3012
RJCC 151330Z 17005KT 9999 FEW020 BKN040 M04/M07 Q1023 RMK 1CU020 7CU040 A3022
RJCC 151300Z 11002KT 9999 FEW020 BKN040 M04/M07 Q1023 RMK 1CU020 7CU040 A3022
RJCC 151230Z 10003KT 060V120 9999 FEW020 BKN040 M04/M07 Q1023 RMK 1CU020 7CU040 A3023
RJCC 151200Z 16003KT 9999 FEW020 BKN040 M04/M07 Q1023 RMK 1CU020 7CU040 A3023
RJCC 151130Z 14002KT 9999 FEW020 BKN040 M04/M07 Q1023 RMK 1CU020 7CU040 A3023
RJCC 151100Z 10003KT 9999 FEW020 BKN045 M03/M07 Q1023 RMK 1CU020 7CU045 A3023
RJCC 151030Z 15003KT 9999 FEW020 BKN045 M05/M08 Q1023 RMK 1CU020 7CU045 A3023
RJCC 151000Z VRB02KT 9999 FEW020 BKN050 M05/M08 Q1023 RMK 1CU020 6CU050 A3023
RJCC 150930Z VRB02KT 9999 FEW020 BKN050 M03/M08 Q1023 RMK 1CU020 6CU050 A3023
RJCC 150900Z VRB02KT 9999 FEW030 BKN050 M01/M08 Q1023 RMK 1CU030 7CU050 A3022
RJCC 150830Z VRB02KT 9999 FEW030 BKN050 M04/M07 Q1023 RMK 1CU030 7CU050 A3022
RJCC 150800Z 17003KT 9999 FEW030 SCT050 M02/M09 Q1023 RMK 1CU030 4CU050 A3021
RJCC 150730Z 14003KT 9999 FEW030 SCT050 M01/M08 Q1022 RMK 1CU030 3CU050 A3021
RJCC 150700Z 11003KT 9999 FEW030 BKN050 M01/M08 Q1023 RMK 1CU030 7CU050 A3021
RJCC 150630Z 11003KT 9999 FEW030 BKN050 M02/M09 Q1022 RMK 1CU030 6CU050 A3021
RJCC 150600Z 11004KT 9999 FEW030 BKN050 M01/M10 Q1022 RMK 1CU030 5CU050 A3020
RJCC 150530Z 04003KT 360V070 9999 FEW030 SCT050 M00/M10 Q1022 RMK 1CU030 4CU050 A3019
RJCC 150500Z VRB02KT 9999 FEW030 SCT050 M01/M09 Q1022 RMK 1CU030 3CU050 A3019
RJCC 150430Z 08003KT 040V120 9999 FEW030 BKN050 M01/M10 Q1022 RMK 1CU030 5CU050 A3018
RJCC 150400Z 08003KT 050V120 9999 FEW030 SCT050 M01/M10 Q1022 RMK 1CU030 3CU050 A3019